Time;durP1;ratioP1;P1;durP2;ratioP2;P2;SDS_P1;SDS_P2;PMS_P1;PMS_P2;Temp;Humidity;BMP_temperature;BMP_pressure;BME280_temperature;BME280_humidity;BME280_pressure;Samples;Min_cycle;Max_cycle;Signal;HPM_P1;HPM_P2
2022/02/01 00:02:03;;;;;;;12.43;1.70;;;3.90;99.90;;;;;;5072881;28;20086;-59
2022/02/01 00:04:38;;;;;;;14.23;3.70;;;3.90;99.90;;;;;;5069330;28;20049;-59
2022/02/01 00:10:06;;;;;;;9.85;1.48;;;3.90;99.90;;;;;;5071430;28;20476;-59
2022/02/01 00:15:18;;;;;;;11.57;1.65;;;3.80;99.90;;;;;;5071545;28;20452;-59
2022/02/01 00:20:24;;;;;;;12.00;2.15;;;3.80;99.90;;;;;;5068344;28;20373;-59
2022/02/01 00:36:49;;;;;;;10.88;1.40;;;3.70;99.90;;;;;;5066686;28;20023;-59
2022/02/01 00:39:16;;;;;;;10.75;1.10;;;3.70;99.90;;;;;;5067941;28;20020;-59
2022/02/01 00:41:52;;;;;;;10.75;2.15;;;3.60;99.90;;;;;;5068961;28;20407;-59
2022/02/01 00:44:20;;;;;;;13.00;1.52;;;3.60;99.90;;;;;;5064943;28;20431;-59
2022/02/01 00:46:46;;;;;;;6.97;1.77;;;3.60;99.90;;;;;;5065327;28;20027;-59
2022/02/01 00:49:12;;;;;;;7.85;0.93;;;3.60;99.90;;;;;;5067660;28;20025;-59
2022/02/01 00:51:37;;;;;;;12.77;2.60;;;3.70;99.90;;;;;;5067735;28;20392;-59
2022/02/01 00:54:03;;;;;;;9.90;1.27;;;3.70;99.90;;;;;;5070173;28;20036;-59
2022/02/01 00:56:29;;;;;;;9.65;1.33;;;3.70;99.90;;;;;;5070479;28;20534;-59
2022/02/01 00:58:55;;;;;;;11.75;1.58;;;3.70;99.90;;;;;;5067386;28;20013;-59
2022/02/01 01:01:20;;;;;;;10.35;2.13;;;3.70;99.90;;;;;;5064141;28;20385;-59
2022/02/01 01:03:46;;;;;;;8.13;1.45;;;3.70;99.90;;;;;;5064733;28;20032;-59
2022/02/01 01:06:12;;;;;;;11.85;1.15;;;3.70;99.90;;;;;;5067087;28;20080;-59
2022/02/01 01:08:37;;;;;;;8.00;1.35;;;3.80;99.90;;;;;;5063756;28;20032;-59
2022/02/01 01:11:04;;;;;;;6.43;0.95;;;3.80;99.90;;;;;;5068368;28;20036;-59
2022/02/01 01:54:11;;;;;;;10.77;1.35;;;4.00;99.90;;;;;;5062206;28;20039;-59
2022/02/01 01:56:38;;;;;;;11.00;1.13;;;4.00;99.90;;;;;;5069211;28;20028;-59
2022/02/01 01:59:06;;;;;;;8.07;1.23;;;4.00;99.90;;;;;;5067441;28;20025;-59
2022/02/01 02:01:34;;;;;;;7.70;1.35;;;4.10;99.90;;;;;;5066151;28;20047;-59
2022/02/01 02:04:00;;;;;;;5.60;1.02;;;4.10;99.90;;;;;;5068998;28;20024;-59
2022/02/01 02:06:26;;;;;;;6.95;1.20;;;4.10;99.90;;;;;;5066632;28;20021;-59
2022/02/01 02:08:54;;;;;;;7.10;0.90;;;4.10;99.90;;;;;;5066258;28;20051;-59
2022/02/01 02:14:30;;;;;;;9.85;1.58;;;4.20;99.90;;;;;;5068490;28;20652;-59
2022/02/01 02:17:01;;;;;;;6.90;1.05;;;4.20;99.90;;;;;;5067784;28;20073;-59
2022/02/01 02:19:29;;;;;;;4.88;0.60;;;4.20;99.90;;;;;;5062542;28;20024;-59
2022/02/01 02:22:05;;;;;;;8.43;0.82;;;4.10;99.90;;;;;;5064807;28;20024;-59
2022/02/01 02:24:40;;;;;;;6.47;0.82;;;4.20;99.90;;;;;;5064050;28;20376;-59
2022/02/01 02:27:06;;;;;;;8.30;1.02;;;4.10;99.90;;;;;;5063661;28;20040;-59
2022/02/01 02:29:32;;;;;;;5.72;0.93;;;4.10;99.90;;;;;;5060482;28;20392;-59
2022/02/01 02:31:58;;;;;;;10.35;0.90;;;4.10;99.90;;;;;;5066513;28;20052;-59
2022/02/01 02:34:24;;;;;;;7.93;1.40;;;4.10;99.90;;;;;;5067686;28;20525;-59
2022/02/01 02:36:56;;;;;;;5.30;0.80;;;4.10;99.90;;;;;;5066569;28;20021;-59
2022/02/01 02:39:33;;;;;;;8.82;0.95;;;4.10;99.90;;;;;;5065668;28;20020;-59
2022/02/01 02:45:13;;;;;;;8.90;1.10;;;4.10;99.90;;;;;;5066174;28;20036;-59
2022/02/01 02:47:28;;;;;;;8.40;0.93;;;4.10;99.90;;;;;;5064890;28;20406;-59
2022/02/01 02:49:54;;;;;;;5.00;0.80;;;4.10;99.90;;;;;;5065775;28;20016;-59
2022/02/01 02:52:20;;;;;;;7.50;1.38;;;4.10;99.90;;;;;;5067154;28;20584;-59
2022/02/01 02:54:46;;;;;;;8.27;1.45;;;4.10;99.90;;;;;;5057951;28;20108;-59
2022/02/01 02:57:12;;;;;;;6.90;1.08;;;4.10;99.90;;;;;;5074718;28;20100;-59
2022/02/01 02:59:38;;;;;;;9.88;1.25;;;4.10;99.90;;;;;;5065602;28;20540;-59
2022/02/01 03:02:05;;;;;;;9.07;1.00;;;4.10;99.90;;;;;;5066006;28;20032;-59
2022/02/01 03:04:32;;;;;;;11.07;1.02;;;4.10;99.90;;;;;;5065545;28;20067;-59
2022/02/01 03:06:59;;;;;;;10.57;2.10;;;4.10;99.90;;;;;;5065678;28;20032;-59
2022/02/01 03:09:26;;;;;;;11.63;1.30;;;4.10;99.90;;;;;;5068649;28;20021;-59
2022/02/01 03:11:56;;;;;;;5.65;0.90;;;4.10;99.90;;;;;;5065781;28;20499;-59
2022/02/01 03:14:38;;;;;;;8.30;0.93;;;4.10;99.90;;;;;;5066452;28;20063;-59
2022/02/01 03:19:55;;;;;;;4.95;1.50;;;4.10;99.90;;;;;;5068381;28;20052;-59
2022/02/01 03:22:27;;;;;;;8.40;1.08;;;4.10;99.90;;;;;;5062123;28;20017;-59
2022/02/01 03:24:55;;;;;;;6.97;0.95;;;4.10;99.90;;;;;;5068882;28;20487;-59
2022/02/01 03:27:21;;;;;;;7.20;1.05;;;4.10;99.90;;;;;;5074357;28;20035;-59
2022/02/01 03:29:48;;;;;;;11.98;1.58;;;4.10;99.90;;;;;;5071876;28;20025;-59
2022/02/01 03:32:14;;;;;;;15.07;1.30;;;4.10;99.90;;;;;;5069259;28;20024;-59
2022/02/01 03:34:39;;;;;;;6.97;0.80;;;4.10;99.90;;;;;;5068838;28;20043;-59
2022/02/01 03:37:06;;;;;;;7.18;0.90;;;4.10;99.90;;;;;;5071554;28;20032;-59
2022/02/01 03:39:32;;;;;;;7.53;1.05;;;4.10;99.90;;;;;;5071622;28;20021;-59
2022/02/01 03:42:04;;;;;;;9.98;1.27;;;4.10;99.90;;;;;;5074544;28;20024;-59
2022/02/01 03:44:32;;;;;;;11.13;1.50;;;4.10;99.90;;;;;;5075703;28;20020;-59
2022/02/01 03:47:03;;;;;;;11.68;1.98;;;4.10;99.90;;;;;;5071690;28;20025;-59
2022/02/01 03:49:34;;;;;;;9.13;1.17;;;4.10;99.90;;;;;;5071434;28;20024;-59
2022/02/01 03:52:01;;;;;;;8.13;0.95;;;4.20;99.90;;;;;;5070238;28;20106;-59
2022/02/01 03:54:28;;;;;;;11.40;0.88;;;4.10;99.90;;;;;;5056641;28;20020;-59
2022/02/01 03:56:55;;;;;;;10.02;1.13;;;4.20;99.90;;;;;;5068780;28;20013;-59
2022/02/01 03:59:22;;;;;;;5.25;1.50;;;4.20;99.90;;;;;;5068636;28;20025;-59
2022/02/01 04:01:55;;;;;;;6.75;0.93;;;4.20;99.90;;;;;;5067366;28;20013;-59
2022/02/01 04:04:26;;;;;;;10.50;0.93;;;4.20;99.90;;;;;;5069542;28;20036;-59
2022/02/01 04:06:52;;;;;;;7.85;1.35;;;4.20;99.90;;;;;;5071545;28;20081;-59
2022/02/01 04:09:18;;;;;;;9.82;1.15;;;4.20;99.90;;;;;;5058790;28;20048;-59
2022/02/01 04:11:44;;;;;;;6.75;1.05;;;4.20;99.90;;;;;;5071102;28;20029;-59
2022/02/01 04:14:12;;;;;;;6.80;0.80;;;4.20;99.90;;;;;;5068116;28;20048;-59
2022/02/01 04:16:38;;;;;;;6.72;0.75;;;4.20;99.90;;;;;;5066056;28;20479;-59
2022/02/01 04:19:05;;;;;;;5.88;1.10;;;4.20;99.90;;;;;;5070762;28;20398;-59
2022/02/01 04:21:31;;;;;;;7.45;1.00;;;4.20;99.90;;;;;;5069716;28;20021;-59
2022/02/01 04:23:56;;;;;;;7.50;1.80;;;4.20;99.90;;;;;;5069464;28;20021;-59
2022/02/01 04:26:22;;;;;;;9.50;0.90;;;4.20;99.90;;;;;;5067993;28;20040;-59
2022/02/01 04:28:47;;;;;;;6.28;1.23;;;4.20;99.90;;;;;;5070821;28;20040;-59
2022/02/01 04:31:13;;;;;;;9.40;0.70;;;4.20;99.90;;;;;;5065278;28;20029;-59
2022/02/01 04:33:38;;;;;;;4.00;1.90;;;4.20;99.90;;;;;;5070633;28;20496;-59
2022/02/01 04:36:04;;;;;;;9.10;1.08;;;4.20;99.90;;;;;;5069875;28;20119;-59
2022/02/01 04:38:30;;;;;;;6.20;0.73;;;4.20;99.90;;;;;;5070861;28;20460;-59
2022/02/01 04:40:55;;;;;;;4.68;0.70;;;4.30;99.90;;;;;;5070516;28;20374;-59
2022/02/01 04:43:21;;;;;;;7.63;1.30;;;4.30;99.90;;;;;;5067987;28;20032;-59
2022/02/01 04:46:09;;;;;;;9.38;1.17;;;4.20;99.90;;;;;;5069057;28;20070;-59
2022/02/01 04:48:34;;;;;;;6.47;0.85;;;4.30;99.90;;;;;;5066413;28;20025;-59
2022/02/01 04:51:00;;;;;;;5.28;0.80;;;4.20;99.90;;;;;;5070288;28;20032;-59
2022/02/01 04:53:26;;;;;;;9.00;1.08;;;4.30;99.90;;;;;;5067459;28;20021;-59
2022/02/01 04:55:55;;;;;;;9.38;1.45;;;4.30;99.90;;;;;;5068760;28;20028;-59
2022/02/01 04:58:21;;;;;;;8.13;1.17;;;4.30;99.90;;;;;;5069432;28;20103;-59
2022/02/01 05:00:47;;;;;;;8.82;1.30;;;4.30;99.90;;;;;;5067422;28;20515;-59
2022/02/01 05:03:13;;;;;;;9.05;1.33;;;4.30;99.90;;;;;;5070487;28;20028;-59
2022/02/01 05:05:38;;;;;;;12.77;1.33;;;4.30;99.90;;;;;;5069735;28;20510;-59
2022/02/01 05:08:09;;;;;;;7.15;1.10;;;4.30;99.90;;;;;;5067333;28;20540;-59
2022/02/01 05:10:36;;;;;;;6.45;1.10;;;4.30;99.90;;;;;;5069905;28;20431;-59
2022/02/01 05:15:37;;;;;;;13.07;1.30;;;4.30;99.90;;;;;;5064522;28;20104;-59
2022/02/01 05:18:02;;;;;;;11.07;1.52;;;4.40;99.90;;;;;;5069828;28;20025;-59
2022/02/01 05:20:50;;;;;;;7.32;1.27;;;4.30;99.90;;;;;;5057878;28;20642;-59
2022/02/01 05:23:17;;;;;;;11.23;1.27;;;4.30;99.90;;;;;;5066355;28;20241;-58
2022/02/01 05:25:43;;;;;;;8.75;1.25;;;4.30;99.90;;;;;;5066208;28;20121;-59
2022/02/01 05:28:09;;;;;;;7.82;1.17;;;4.30;99.90;;;;;;5066949;28;20036;-59
2022/02/01 05:30:35;;;;;;;10.90;2.30;;;4.30;99.90;;;;;;5061417;28;20028;-59
2022/02/01 05:33:23;;;;;;;7.97;1.27;;;4.30;99.90;;;;;;5069580;28;20029;-59
2022/02/01 05:35:49;;;;;;;9.15;1.73;;;4.30;99.90;;;;;;5066913;28;20039;-59
2022/02/01 05:38:14;;;;;;;8.13;1.52;;;4.30;99.90;;;;;;5067668;28;20021;-59
2022/02/01 05:40:40;;;;;;;6.15;1.10;;;4.30;99.90;;;;;;5065855;28;20502;-59
2022/02/01 05:43:11;;;;;;;14.13;1.77;;;4.30;99.90;;;;;;5066491;28;20024;-59
2022/02/01 05:45:43;;;;;;;13.77;2.50;;;4.20;99.90;;;;;;5067961;28;20017;-59
2022/02/01 05:48:12;;;;;;;10.05;1.33;;;4.20;99.90;;;;;;5068123;28;20043;-58
2022/02/01 05:50:38;;;;;;;10.63;2.22;;;4.20;99.90;;;;;;5073508;28;20033;-59
2022/02/01 05:53:06;;;;;;;10.63;1.63;;;4.20;99.90;;;;;;5066114;28;20036;-59
2022/02/01 05:55:33;;;;;;;12.23;2.92;;;4.30;99.90;;;;;;5059171;28;20047;-59
2022/02/01 05:57:59;;;;;;;9.27;1.30;;;4.30;99.90;;;;;;5061362;28;20028;-59
2022/02/01 06:00:41;;;;;;;13.32;1.75;;;4.30;99.90;;;;;;5070178;28;20376;-59
2022/02/01 06:03:07;;;;;;;12.65;1.98;;;4.30;99.90;;;;;;5066511;28;20028;-59
2022/02/01 06:05:32;;;;;;;9.43;1.52;;;4.30;99.90;;;;;;5066305;28;20020;-59
2022/02/01 06:07:58;;;;;;;12.00;1.77;;;4.30;99.90;;;;;;5063370;28;20530;-59
2022/02/01 06:10:24;;;;;;;13.40;1.92;;;4.30;99.90;;;;;;5068787;28;20029;-59
2022/02/01 06:12:50;;;;;;;9.05;2.38;;;4.30;99.90;;;;;;5066073;28;20078;-59
2022/02/01 06:15:22;;;;;;;9.60;1.92;;;4.30;99.90;;;;;;5066939;28;20048;-58
2022/02/01 06:17:47;;;;;;;10.40;2.60;;;4.40;99.90;;;;;;5046114;28;20090;-59
2022/02/01 06:20:13;;;;;;;17.63;3.47;;;4.40;99.90;;;;;;5068760;28;20024;-59
2022/02/01 06:22:39;;;;;;;16.25;2.97;;;4.40;99.90;;;;;;5071617;28;20027;-59
2022/02/01 06:25:06;;;;;;;13.45;3.55;;;4.40;99.90;;;;;;5068637;28;20032;-59
2022/02/01 06:27:32;;;;;;;12.82;2.22;;;4.40;99.90;;;;;;5064719;28;20028;-59
2022/02/01 06:29:58;;;;;;;15.05;3.53;;;4.40;99.90;;;;;;5066101;28;20388;-59
2022/02/01 06:32:35;;;;;;;13.73;2.88;;;4.50;99.90;;;;;;5065995;28;20051;-59
2022/02/01 06:35:00;;;;;;;15.82;4.35;;;4.50;99.90;;;;;;5065907;28;20492;-59
2022/02/01 06:37:26;;;;;;;12.13;3.03;;;4.40;99.90;;;;;;5071167;28;20070;-59
2022/02/01 06:39:51;;;;;;;15.75;3.92;;;4.50;99.90;;;;;;5068691;28;20052;-59
2022/02/01 06:42:17;;;;;;;16.08;3.92;;;4.50;99.90;;;;;;5063641;28;20028;-59
2022/02/01 06:44:43;;;;;;;15.27;4.00;;;4.50;99.90;;;;;;5067890;28;20021;-59
2022/02/01 06:47:08;;;;;;;16.60;3.90;;;4.50;99.90;;;;;;5069436;28;20550;-59
2022/02/01 06:49:34;;;;;;;15.13;4.03;;;4.50;99.90;;;;;;5072058;28;20033;-59
2022/02/01 06:52:01;;;;;;;13.85;4.80;;;4.50;99.90;;;;;;5071630;28;20037;-59
2022/02/01 06:54:29;;;;;;;14.48;4.80;;;4.50;99.90;;;;;;5071767;28;20017;-59
2022/02/01 06:56:55;;;;;;;16.38;4.22;;;4.50;99.90;;;;;;5072443;28;20027;-59
2022/02/01 06:59:21;;;;;;;14.32;4.50;;;4.60;99.90;;;;;;5075209;28;20431;-59
2022/02/01 07:01:46;;;;;;;16.30;4.63;;;4.50;99.90;;;;;;5089927;28;20053;-59
2022/02/01 07:04:12;;;;;;;18.65;5.80;;;4.60;99.90;;;;;;5096147;28;20032;-59
2022/02/01 07:06:37;;;;;;;17.98;5.05;;;4.60;99.90;;;;;;5076451;28;20094;-59
2022/02/01 07:09:04;;;;;;;18.05;7.00;;;4.60;99.90;;;;;;5067251;28;20055;-59
2022/02/01 07:11:30;;;;;;;18.58;6.68;;;4.60;99.90;;;;;;5074474;28;20476;-59
2022/02/01 07:14:01;;;;;;;16.58;6.25;;;4.50;99.90;;;;;;5074108;28;20036;-59
2022/02/01 07:16:26;;;;;;;18.98;8.00;;;4.50;99.90;;;;;;5074548;28;20055;-59
2022/02/01 07:19:23;;;;;;;23.58;8.05;;;4.50;99.90;;;;;;5074852;28;20035;-59
2022/02/01 07:21:48;;;;;;;20.55;8.65;;;4.50;99.90;;;;;;5071917;28;20070;-59
2022/02/01 07:24:17;;;;;;;23.92;10.60;;;4.50;99.90;;;;;;5072775;28;20451;-59
2022/02/01 07:26:53;;;;;;;26.27;10.85;;;4.60;99.90;;;;;;5071949;28;20025;-59
2022/02/01 07:29:19;;;;;;;19.95;9.95;;;4.60;99.90;;;;;;5074347;28;20444;-59
2022/02/01 07:31:56;;;;;;;27.52;10.60;;;4.50;99.90;;;;;;5074219;28;20055;-59
2022/02/01 07:34:22;;;;;;;24.60;11.13;;;4.60;99.90;;;;;;5074191;28;20440;-59
2022/02/01 07:36:47;;;;;;;28.92;11.95;;;4.60;99.90;;;;;;5074003;28;20044;-59
2022/02/01 07:39:13;;;;;;;26.05;13.23;;;4.50;99.90;;;;;;5074273;28;20016;-59
2022/02/01 07:41:39;;;;;;;30.27;14.65;;;4.60;99.90;;;;;;5075350;28;20079;-59
2022/02/01 07:44:23;;;;;;;;;;;;;;;;;;;;;
2022/02/01 07:46:50;;;;;;;29.38;16.15;;;4.60;99.90;;;;;;5075623;28;20029;-59
2022/02/01 07:49:18;;;;;;;33.13;16.95;;;4.60;99.90;;;;;;5073814;28;20024;-59
2022/02/01 07:51:43;;;;;;;32.05;18.13;;;4.60;99.90;;;;;;5073885;28;20024;-59
2022/02/01 07:54:08;;;;;;;33.25;18.05;;;4.60;99.90;;;;;;5074115;28;20043;-59
2022/02/01 07:56:34;;;;;;;31.65;19.17;;;4.60;99.90;;;;;;5074716;28;20432;-58
2022/02/01 07:58:59;;;;;;;34.67;20.83;;;4.70;99.90;;;;;;5075005;28;20029;-59
2022/02/01 08:01:25;;;;;;;38.58;21.13;;;4.70;99.90;;;;;;5085804;28;20055;-59
2022/02/01 08:03:50;;;;;;;42.80;22.80;;;4.70;99.90;;;;;;5095484;28;20077;-59
2022/02/01 08:06:16;;;;;;;39.58;22.08;;;4.70;99.90;;;;;;5095383;28;20032;-59
2022/02/01 08:08:42;;;;;;;35.53;23.08;;;4.70;99.90;;;;;;5095627;28;20024;-59
2022/02/01 08:11:11;;;;;;;37.85;22.85;;;4.80;99.90;;;;;;5075193;28;20020;-59
2022/02/01 08:19:26;;;;;;;42.13;23.52;;;4.80;99.90;;;;;;5074132;28;20032;-59
2022/02/01 08:21:46;;;;;;;36.72;24.08;;;4.90;99.90;;;;;;5073788;28;20037;-59
2022/02/01 08:24:38;;;;;;;38.60;24.35;;;4.90;99.90;;;;;;5074705;28;20054;-59
2022/02/01 08:27:03;;;;;;;36.15;23.83;;;4.90;99.90;;;;;;5074356;28;20044;-59
2022/02/01 08:29:29;;;;;;;40.03;25.80;;;4.90;99.90;;;;;;5074919;28;20016;-59
2022/02/01 08:31:54;;;;;;;38.05;24.55;;;4.90;99.90;;;;;;5075024;28;20380;-59
2022/02/01 08:34:26;;;;;;;42.33;26.70;;;5.00;99.90;;;;;;5074608;28;20380;-59
2022/02/01 08:36:51;;;;;;;36.45;24.58;;;5.00;99.90;;;;;;5074742;28;20016;-60
2022/02/01 08:39:17;;;;;;;40.28;25.83;;;5.00;99.90;;;;;;5074492;28;20054;-59
2022/02/01 08:41:43;;;;;;;39.47;25.10;;;5.00;99.90;;;;;;5074535;28;20078;-59
2022/02/01 08:44:26;;;;;;;;;;;;;;;;;;;;;
2022/02/01 08:46:52;;;;;;;36.78;25.17;;;5.10;99.90;;;;;;5073911;28;20028;-60
2022/02/01 08:49:18;;;;;;;38.13;26.20;;;5.10;99.90;;;;;;5073464;28;20453;-59
2022/02/01 08:51:45;;;;;;;36.40;25.38;;;5.10;99.90;;;;;;5073365;28;20481;-59
2022/02/01 08:54:17;;;;;;;33.97;23.92;;;5.10;99.90;;;;;;5072496;28;20260;-59
2022/02/01 08:59:40;;;;;;;35.92;24.45;;;5.20;99.90;;;;;;5074308;28;20108;-59
2022/02/01 09:02:33;;;;;;;;;;;;;;;;;;;;;
2022/02/01 09:04:59;;;;;;;36.22;25.08;;;5.20;99.90;;;;;;5094357;28;20031;-60
2022/02/01 09:07:25;;;;;;;36.80;24.38;;;5.20;99.90;;;;;;5082438;28;20107;-59
2022/02/01 09:09:51;;;;;;;34.17;23.80;;;5.20;99.90;;;;;;5074037;28;20017;-59
2022/02/01 09:12:18;;;;;;;34.80;25.05;;;5.30;99.90;;;;;;5073679;28;20028;-59
2022/02/01 09:14:46;;;;;;;31.83;23.83;;;5.30;99.90;;;;;;5073586;28;20048;-59
2022/02/01 09:17:13;;;;;;;31.33;23.08;;;5.30;99.90;;;;;;5073700;28;20039;-59
2022/02/01 09:19:41;;;;;;;26.42;20.85;;;5.30;99.90;;;;;;5073077;28;20523;-59
2022/02/01 09:22:06;;;;;;;29.70;21.35;;;5.40;99.90;;;;;;5084510;28;20081;-59
2022/02/01 09:24:32;;;;;;;27.35;22.00;;;5.40;99.90;;;;;;5073347;28;20025;-59
2022/02/01 09:26:59;;;;;;;28.27;21.35;;;5.40;99.90;;;;;;5074113;28;20032;-59
2022/02/01 09:29:25;;;;;;;26.98;19.20;;;5.40;99.90;;;;;;5073570;28;20032;-59
2022/02/01 09:31:52;;;;;;;29.15;20.50;;;5.50;99.90;;;;;;5073619;28;20107;-59
2022/02/01 09:34:24;;;;;;;26.35;19.58;;;5.50;99.90;;;;;;5073299;28;20024;-59
2022/02/01 09:37:27;;;;;;;24.15;19.40;;;5.50;99.90;;;;;;5073595;28;20166;-59
2022/02/01 09:39:52;;;;;;;23.80;18.70;;;5.50;99.90;;;;;;5071881;28;20503;-60
2022/02/01 09:42:18;;;;;;;25.45;19.63;;;5.50;99.90;;;;;;5073180;28;20024;-59
2022/02/01 09:45:04;;;;;;;22.45;18.30;;;5.50;99.90;;;;;;5073653;28;20028;-59
2022/02/01 09:47:35;;;;;;;23.13;17.70;;;5.60;99.90;;;;;;5073143;28;20131;-60
2022/02/01 09:50:01;;;;;;;23.95;17.55;;;5.60;99.90;;;;;;5073203;28;20380;-59
2022/02/01 09:52:28;;;;;;;22.17;17.92;;;5.60;99.90;;;;;;5073240;28;20578;-59
2022/02/01 09:54:54;;;;;;;22.95;17.67;;;5.70;99.90;;;;;;5073055;28;20031;-60
2022/02/01 09:57:21;;;;;;;22.13;16.65;;;5.80;99.90;;;;;;5073103;28;20503;-60
2022/02/01 09:59:55;;;;;;;19.25;15.70;;;5.80;99.90;;;;;;5073063;28;20574;-59
2022/02/01 10:02:22;;;;;;;19.20;15.38;;;5.80;99.90;;;;;;5091192;28;20103;-59
2022/02/01 10:05:11;;;;;;;19.23;14.45;;;5.90;99.90;;;;;;5093177;28;20027;-60
2022/02/01 10:08:00;;;;;;;19.27;14.30;;;5.90;99.90;;;;;;5093354;28;20016;-59
2022/02/01 10:10:30;;;;;;;19.10;13.33;;;6.00;99.90;;;;;;5080368;28;20484;-60
2022/02/01 10:13:02;;;;;;;16.45;13.00;;;6.00;99.90;;;;;;5072522;28;20287;-59
2022/02/01 10:15:28;;;;;;;17.67;13.18;;;6.00;99.90;;;;;;5072962;28;20079;-59
2022/02/01 10:18:02;;;;;;;17.23;12.57;;;6.10;99.90;;;;;;5072861;28;20016;-59
2022/02/01 10:20:38;;;;;;;14.40;11.05;;;6.20;99.90;;;;;;5072856;28;20028;-59
2022/02/01 10:23:17;;;;;;;14.02;10.68;;;6.20;99.90;;;;;;5072785;28;20107;-59
2022/02/01 10:26:02;;;;;;;14.00;10.27;;;6.30;99.90;;;;;;5073024;28;20400;-59
2022/02/01 10:34:26;;;;;;;12.45;9.68;;;6.40;99.90;;;;;;5071788;28;20035;-59
2022/02/01 10:36:53;;;;;;;13.48;8.57;;;6.50;99.90;;;;;;5071358;28;20025;-59
2022/02/01 10:39:30;;;;;;;10.15;8.07;;;6.50;99.90;;;;;;5071156;28;20032;-59
2022/02/01 10:41:59;;;;;;;13.63;9.00;;;6.50;99.90;;;;;;5072684;28;20020;-59
2022/02/01 10:44:38;;;;;;;10.65;8.40;;;6.60;99.90;;;;;;5072216;28;20477;-60
2022/02/01 10:47:05;;;;;;;11.32;8.35;;;6.60;99.90;;;;;;5072505;28;20024;-60
2022/02/01 10:49:32;;;;;;;10.02;7.43;;;6.60;99.90;;;;;;5071363;28;20020;-59
2022/02/01 10:52:37;;;;;;;10.20;7.88;;;6.70;99.90;;;;;;5083774;28;20028;-60
2022/02/01 10:55:05;;;;;;;10.68;8.00;;;6.80;99.90;;;;;;5070354;28;20029;-59
2022/02/01 10:57:30;;;;;;;11.50;7.78;;;6.80;99.90;;;;;;5070640;28;20564;-59
2022/02/01 10:59:56;;;;;;;10.25;7.88;;;6.80;99.90;;;;;;5070584;28;20100;-59
2022/02/01 11:02:25;;;;;;;9.10;7.20;;;6.90;99.90;;;;;;5071730;28;20380;-60
2022/02/01 11:04:54;;;;;;;10.27;7.20;;;6.90;99.90;;;;;;5070806;28;20078;-60
2022/02/01 11:07:21;;;;;;;7.88;6.25;;;6.90;99.90;;;;;;5070239;28;20416;-60
2022/02/01 11:09:46;;;;;;;9.82;6.32;;;6.90;99.90;;;;;;5070298;28;20111;-60
2022/02/01 11:12:12;;;;;;;8.70;6.90;;;7.00;99.90;;;;;;5068327;28;20112;-59
2022/02/01 11:14:43;;;;;;;8.27;6.70;;;7.00;99.90;;;;;;5068542;28;20053;-60
2022/02/01 11:17:11;;;;;;;10.38;6.95;;;7.10;99.90;;;;;;5069949;28;20507;-60
2022/02/01 11:19:55;;;;;;;8.45;6.28;;;7.10;99.90;;;;;;5067640;28;20504;-59
2022/02/01 11:22:33;;;;;;;7.28;6.35;;;7.10;99.90;;;;;;5069623;28;20024;-59
2022/02/01 11:25:05;;;;;;;8.90;6.57;;;7.20;99.90;;;;;;5070560;28;20535;-60
2022/02/01 11:27:46;;;;;;;8.80;5.78;;;7.20;99.90;;;;;;5069288;28;20387;-59
2022/02/01 11:30:13;;;;;;;9.00;5.30;;;7.30;99.90;;;;;;5069908;28;20017;-60
2022/02/01 11:32:50;;;;;;;6.78;5.30;;;7.30;99.90;;;;;;5067872;28;20534;-60
2022/02/01 11:35:22;;;;;;;5.82;4.60;;;7.40;99.90;;;;;;5071206;28;20023;-59
2022/02/01 11:38:03;;;;;;;9.48;5.00;;;7.40;99.90;;;;;;5072304;28;20017;-59
2022/02/01 11:40:38;;;;;;;6.70;4.45;;;7.50;99.90;;;;;;5070720;28;20032;-59
2022/02/01 11:43:09;;;;;;;6.60;4.38;;;7.50;99.90;;;;;;5071966;28;20044;-60
2022/02/01 11:45:40;;;;;;;5.72;3.92;;;7.50;99.90;;;;;;5074511;28;20419;-59
2022/02/01 11:48:26;;;;;;;7.63;4.25;;;7.60;99.90;;;;;;5075655;28;20056;-59
2022/02/01 11:51:30;;;;;;;6.90;3.83;;;7.60;99.90;;;;;;5074961;28;20054;-59
2022/02/01 11:53:58;;;;;;;4.25;3.63;;;7.60;99.90;;;;;;5071881;28;20012;-59
2022/02/01 11:56:32;;;;;;;5.78;3.45;;;7.60;99.90;;;;;;5073896;28;20039;-60
2022/02/01 11:59:06;;;;;;;6.07;3.50;;;7.70;99.90;;;;;;5074124;28;20473;-60
2022/02/01 12:01:37;;;;;;;5.55;3.60;;;7.70;99.90;;;;;;5075826;28;20067;-59
2022/02/01 12:04:26;;;;;;;5.18;4.00;;;7.70;99.90;;;;;;5074033;28;20070;-60
2022/02/01 12:07:07;;;;;;;5.72;3.53;;;7.80;99.90;;;;;;5070214;28;20044;-59
2022/02/01 12:09:33;;;;;;;6.70;3.22;;;7.80;99.90;;;;;;5069415;28;20017;-60
2022/02/01 12:12:00;;;;;;;4.93;3.50;;;7.80;99.90;;;;;;5071393;28;20426;-59
2022/02/01 12:14:27;;;;;;;6.13;3.72;;;7.80;99.90;;;;;;5071413;28;20036;-59
2022/02/01 12:16:55;;;;;;;7.10;3.60;;;7.80;99.90;;;;;;5070390;28;20047;-59
2022/02/01 12:19:27;;;;;;;7.45;4.63;;;7.90;99.90;;;;;;5070244;28;20028;-59
2022/02/01 12:22:13;;;;;;;8.00;4.40;;;7.90;99.90;;;;;;5089097;28;20051;-59
2022/02/01 12:24:40;;;;;;;7.75;4.63;;;7.90;99.90;;;;;;5084758;28;20027;-59
2022/02/01 12:27:06;;;;;;;7.25;5.15;;;8.00;99.90;;;;;;5071831;28;20519;-59
2022/02/01 12:29:31;;;;;;;12.05;6.20;;;8.00;99.90;;;;;;5080757;28;20056;-60
2022/02/01 12:32:06;;;;;;;13.60;7.07;;;8.00;99.90;;;;;;5069003;28;20060;-59
2022/02/01 12:34:31;;;;;;;13.93;7.53;;;8.10;99.90;;;;;;5070907;28;20473;-59
2022/02/01 12:36:57;;;;;;;17.63;7.88;;;8.10;99.90;;;;;;5072891;28;20050;-59
2022/02/01 12:39:29;;;;;;;17.80;8.07;;;8.10;99.90;;;;;;5070429;28;20025;-59
2022/02/01 12:42:12;;;;;;;20.00;7.85;;;8.20;99.90;;;;;;5069202;28;20078;-60
2022/02/01 12:47:16;;;;;;;18.35;7.57;;;8.20;99.90;;;;;;5072421;28;20047;-60
2022/02/01 12:49:49;;;;;;;16.10;7.82;;;8.20;99.90;;;;;;5070926;28;20016;-60
2022/02/01 12:52:24;;;;;;;13.90;7.45;;;8.30;99.90;;;;;;5071812;28;20048;-60
2022/02/01 12:55:00;;;;;;;12.57;6.75;;;8.30;99.90;;;;;;5069273;28;20037;-59
2022/02/01 12:57:26;;;;;;;20.45;8.10;;;8.30;99.90;;;;;;5069466;28;20031;-59
2022/02/01 12:59:56;;;;;;;15.77;7.55;;;8.30;99.90;;;;;;5071529;28;20301;-59
2022/02/01 13:02:30;;;;;;;15.52;7.95;;;8.40;99.90;;;;;;5075017;28;20016;-59
2022/02/01 13:05:03;;;;;;;17.58;7.38;;;8.40;99.90;;;;;;5071685;28;20074;-60
2022/02/01 13:07:54;;;;;;;15.80;6.43;;;8.50;99.90;;;;;;5071634;28;20040;-59
2022/02/01 13:14:15;;;;;;;17.77;6.03;;;8.50;99.90;;;;;;5069350;28;20055;-60
2022/02/01 13:16:38;;;;;;;16.40;5.85;;;8.50;99.90;;;;;;5070543;28;20072;-59
2022/02/01 13:21:46;;;;;;;14.38;5.40;;;8.60;99.90;;;;;;5071844;28;20112;-59
2022/02/01 13:24:28;;;;;;;11.02;5.18;;;8.60;99.90;;;;;;5072767;28;20121;-59
2022/02/01 13:27:28;;;;;;;13.18;5.80;;;8.70;99.90;;;;;;5068602;28;20021;-59
2022/02/01 13:30:04;;;;;;;11.13;4.68;;;8.70;99.90;;;;;;5066900;28;20036;-59
2022/02/01 13:32:32;;;;;;;10.02;4.00;;;8.70;99.90;;;;;;5071236;28;20036;-59
2022/02/01 13:35:04;;;;;;;10.82;4.05;;;8.80;99.90;;;;;;5071508;28;20020;-59
2022/02/01 13:37:29;;;;;;;8.75;3.97;;;8.80;99.90;;;;;;5072845;28;20391;-59
2022/02/01 13:39:55;;;;;;;9.68;3.88;;;8.90;99.90;;;;;;5072800;28;20031;-59
2022/02/01 13:42:28;;;;;;;8.32;2.88;;;8.90;99.90;;;;;;5057126;28;20009;-59
2022/02/01 13:44:59;;;;;;;7.82;2.85;;;9.00;99.90;;;;;;5064426;28;20507;-59
2022/02/01 13:47:40;;;;;;;6.20;2.80;;;9.00;99.90;;;;;;5066363;28;20041;-59
2022/02/01 13:50:09;;;;;;;7.57;2.95;;;9.10;99.90;;;;;;5071673;28;20017;-59
2022/02/01 13:52:35;;;;;;;13.82;4.90;;;9.10;99.90;;;;;;5072451;28;20012;-59
2022/02/01 13:55:01;;;;;;;9.75;3.15;;;9.10;99.90;;;;;;5072303;28;20602;-59
2022/02/01 13:57:32;;;;;;;9.38;3.08;;;9.10;99.90;;;;;;5071936;28;20031;-59
2022/02/01 14:00:12;;;;;;;9.32;3.20;;;9.20;99.90;;;;;;5071193;28;20020;-59
2022/02/01 14:02:48;;;;;;;9.13;2.75;;;9.20;99.90;;;;;;5084909;28;20020;-60
2022/02/01 14:05:24;;;;;;;6.88;2.47;;;9.20;99.90;;;;;;5072334;28;20047;-59
2022/02/01 14:14:01;;;;;;;5.45;2.05;;;9.30;99.90;;;;;;5072351;28;20506;-59
2022/02/01 14:22:30;;;;;;;9.00;2.53;;;9.30;99.90;;;;;;5056557;28;20029;-59
2022/02/01 14:22:33;;;;;;;9.02;2.55;;;9.40;99.90;;;;;;5070066;28;20076;-59
2022/02/01 14:35:02;;;;;;;8.48;2.40;;;9.50;99.90;;;;;;5072261;28;20111;-60
2022/02/01 14:37:39;;;;;;;8.68;2.00;;;9.50;99.90;;;;;;5058861;28;20017;-60
2022/02/01 14:43:18;;;;;;;8.40;1.90;;;9.50;99.90;;;;;;5060268;28;20017;-60
2022/02/01 14:45:42;;;;;;;;;;;9.50;99.90;;;;;;5071858;28;20102;-60
2022/02/01 14:48:07;;;;;;;9.20;2.05;;;9.50;99.90;;;;;;5068505;28;19915;-59
2022/02/01 14:50:33;;;;;;;9.80;1.90;;;9.50;99.90;;;;;;5066629;28;20108;-59
2022/02/01 14:55:55;;;;;;;13.23;2.95;;;9.60;99.90;;;;;;5056325;28;20486;-59
2022/02/01 15:04:08;;;;;;;14.60;2.97;;;9.60;99.90;;;;;;5067141;28;20101;-59
2022/02/01 15:14:34;;;;;;;11.25;2.15;;;9.60;99.90;;;;;;5065401;28;20049;-59
2022/02/01 15:17:27;;;;;;;11.27;3.17;;;9.60;99.90;;;;;;5060737;28;20082;-60
2022/02/01 15:20:38;;;;;;;10.13;2.00;;;9.70;99.90;;;;;;5056761;28;20079;-60
2022/02/01 15:23:04;;;;;;;8.45;1.75;;;9.70;99.90;;;;;;5044065;28;20029;-59
2022/02/01 15:25:46;;;;;;;11.13;2.65;;;9.70;99.90;;;;;;5072418;28;20086;-60